sensor_id;sensor_type;location;lat;lon;timestamp;P1;durP1;ratioP1;P2;durP2;ratioP2
35444;SDS011;21562;49.476;6.086;2022-08-19T00:01:25;7.53;;;6.15;;
35444;SDS011;21562;49.476;6.086;2022-08-19T00:03:52;9.77;;;7.38;;
35444;SDS011;21562;49.476;6.086;2022-08-19T00:06:18;9.38;;;6.53;;
35444;SDS011;21562;49.476;6.086;2022-08-19T00:08:43;7.15;;;6.25;;
35444;SDS011;21562;49.476;6.086;2022-08-19T00:11:09;8.20;;;6.25;;
35444;SDS011;21562;49.476;6.086;2022-08-19T00:13:36;8.00;;;7.07;;
35444;SDS011;21562;49.476;6.086;2022-08-19T00:16:03;8.63;;;6.68;;
35444;SDS011;21562;49.476;6.086;2022-08-19T00:18:30;6.95;;;6.25;;
35444;SDS011;21562;49.476;6.086;2022-08-19T00:20:57;6.63;;;5.90;;
35444;SDS011;21562;49.476;6.086;2022-08-19T00:23:22;7.05;;;6.30;;
35444;SDS011;21562;49.476;6.086;2022-08-19T00:25:48;8.88;;;6.30;;
35444;SDS011;21562;49.476;6.086;2022-08-19T00:28:14;9.30;;;7.20;;
35444;SDS011;21562;49.476;6.086;2022-08-19T00:30:39;7.90;;;5.95;;
35444;SDS011;21562;49.476;6.086;2022-08-19T00:33:05;7.00;;;5.85;;
35444;SDS011;21562;49.476;6.086;2022-08-19T00:35:33;7.18;;;6.10;;
35444;SDS011;21562;49.476;6.086;2022-08-19T00:37:59;6.00;;;5.40;;
35444;SDS011;21562;49.476;6.086;2022-08-19T00:40:25;6.80;;;6.10;;
35444;SDS011;21562;49.476;6.086;2022-08-19T00:42:50;7.82;;;6.10;;
35444;SDS011;21562;49.476;6.086;2022-08-19T00:45:20;6.45;;;5.68;;
35444;SDS011;21562;49.476;6.086;2022-08-19T00:47:47;8.75;;;6.22;;
35444;SDS011;21562;49.476;6.086;2022-08-19T00:50:13;10.13;;;7.10;;
35444;SDS011;21562;49.476;6.086;2022-08-19T00:52:42;8.50;;;5.95;;
35444;SDS011;21562;49.476;6.086;2022-08-19T00:55:12;8.18;;;6.90;;
35444;SDS011;21562;49.476;6.086;2022-08-19T00:57:42;8.52;;;6.25;;
35444;SDS011;21562;49.476;6.086;2022-08-19T01:00:14;6.85;;;5.95;;
35444;SDS011;21562;49.476;6.086;2022-08-19T01:02:42;6.75;;;6.05;;
35444;SDS011;21562;49.476;6.086;2022-08-19T01:05:13;6.93;;;6.13;;
35444;SDS011;21562;49.476;6.086;2022-08-19T01:07:43;8.27;;;7.18;;
35444;SDS011;21562;49.476;6.086;2022-08-19T01:10:11;7.53;;;6.40;;
35444;SDS011;21562;49.476;6.086;2022-08-19T01:12:39;7.43;;;6.50;;
35444;SDS011;21562;49.476;6.086;2022-08-19T01:15:06;6.13;;;5.50;;
35444;SDS011;21562;49.476;6.086;2022-08-19T01:17:34;6.60;;;5.63;;
35444;SDS011;21562;49.476;6.086;2022-08-19T01:20:04;8.32;;;7.15;;
35444;SDS011;21562;49.476;6.086;2022-08-19T01:25:01;6.43;;;5.50;;
35444;SDS011;21562;49.476;6.086;2022-08-19T01:27:27;6.57;;;5.82;;
35444;SDS011;21562;49.476;6.086;2022-08-19T01:30:05;6.72;;;5.90;;
35444;SDS011;21562;49.476;6.086;2022-08-19T01:32:32;7.47;;;6.57;;
35444;SDS011;21562;49.476;6.086;2022-08-19T01:34:58;6.72;;;5.95;;
35444;SDS011;21562;49.476;6.086;2022-08-19T01:37:27;6.88;;;6.10;;
35444;SDS011;21562;49.476;6.086;2022-08-19T01:39:52;6.00;;;5.40;;
35444;SDS011;21562;49.476;6.086;2022-08-19T01:42:18;6.30;;;5.47;;
35444;SDS011;21562;49.476;6.086;2022-08-19T01:44:44;9.13;;;6.22;;
35444;SDS011;21562;49.476;6.086;2022-08-19T01:47:10;7.07;;;5.85;;
35444;SDS011;21562;49.476;6.086;2022-08-19T01:49:36;6.80;;;5.75;;
35444;SDS011;21562;49.476;6.086;2022-08-19T01:52:03;9.75;;;5.90;;
35444;SDS011;21562;49.476;6.086;2022-08-19T01:54:29;7.72;;;6.18;;
35444;SDS011;21562;49.476;6.086;2022-08-19T01:56:57;10.57;;;7.97;;
35444;SDS011;21562;49.476;6.086;2022-08-19T01:59:26;6.50;;;5.85;;
35444;SDS011;21562;49.476;6.086;2022-08-19T02:01:52;8.40;;;6.50;;
35444;SDS011;21562;49.476;6.086;2022-08-19T02:04:18;8.25;;;6.18;;
35444;SDS011;21562;49.476;6.086;2022-08-19T02:06:44;7.70;;;6.32;;
35444;SDS011;21562;49.476;6.086;2022-08-19T02:09:09;7.88;;;6.70;;
35444;SDS011;21562;49.476;6.086;2022-08-19T02:11:35;7.35;;;6.50;;
35444;SDS011;21562;49.476;6.086;2022-08-19T02:14:04;7.80;;;6.40;;
35444;SDS011;21562;49.476;6.086;2022-08-19T02:16:31;9.98;;;6.18;;
35444;SDS011;21562;49.476;6.086;2022-08-19T02:18:57;7.80;;;6.45;;
35444;SDS011;21562;49.476;6.086;2022-08-19T02:21:25;7.35;;;6.40;;
35444;SDS011;21562;49.476;6.086;2022-08-19T02:23:51;9.27;;;6.60;;
35444;SDS011;21562;49.476;6.086;2022-08-19T02:26:17;7.38;;;6.03;;
35444;SDS011;21562;49.476;6.086;2022-08-19T02:28:43;7.50;;;6.22;;
35444;SDS011;21562;49.476;6.086;2022-08-19T02:31:13;9.45;;;8.15;;
35444;SDS011;21562;49.476;6.086;2022-08-19T02:33:41;9.60;;;8.45;;
35444;SDS011;21562;49.476;6.086;2022-08-19T02:36:07;9.75;;;6.88;;
35444;SDS011;21562;49.476;6.086;2022-08-19T02:38:33;8.98;;;6.70;;
35444;SDS011;21562;49.476;6.086;2022-08-19T02:41:03;8.18;;;6.25;;
35444;SDS011;21562;49.476;6.086;2022-08-19T02:43:32;8.50;;;6.65;;
35444;SDS011;21562;49.476;6.086;2022-08-19T02:46:01;7.05;;;6.35;;
35444;SDS011;21562;49.476;6.086;2022-08-19T02:48:36;6.82;;;6.13;;
35444;SDS011;21562;49.476;6.086;2022-08-19T02:51:02;7.35;;;6.60;;
35444;SDS011;21562;49.476;6.086;2022-08-19T02:53:28;9.95;;;7.38;;
35444;SDS011;21562;49.476;6.086;2022-08-19T02:55:54;9.85;;;7.72;;
35444;SDS011;21562;49.476;6.086;2022-08-19T02:58:20;8.63;;;7.55;;
35444;SDS011;21562;49.476;6.086;2022-08-19T03:00:49;9.02;;;7.55;;
35444;SDS011;21562;49.476;6.086;2022-08-19T03:03:17;9.13;;;7.10;;
35444;SDS011;21562;49.476;6.086;2022-08-19T03:05:44;8.50;;;7.55;;
35444;SDS011;21562;49.476;6.086;2022-08-19T03:08:11;8.63;;;7.72;;
35444;SDS011;21562;49.476;6.086;2022-08-19T03:10:44;8.40;;;6.57;;
35444;SDS011;21562;49.476;6.086;2022-08-19T03:13:13;7.82;;;6.93;;
35444;SDS011;21562;49.476;6.086;2022-08-19T03:15:41;7.75;;;6.65;;
35444;SDS011;21562;49.476;6.086;2022-08-19T03:18:07;9.10;;;8.00;;
35444;SDS011;21562;49.476;6.086;2022-08-19T03:20:33;7.30;;;6.32;;
35444;SDS011;21562;49.476;6.086;2022-08-19T03:23:04;8.98;;;6.97;;
35444;SDS011;21562;49.476;6.086;2022-08-19T03:25:30;6.97;;;6.28;;
35444;SDS011;21562;49.476;6.086;2022-08-19T03:27:55;14.05;;;6.90;;
35444;SDS011;21562;49.476;6.086;2022-08-19T03:30:21;9.25;;;6.90;;
35444;SDS011;21562;49.476;6.086;2022-08-19T03:32:46;11.48;;;8.02;;
35444;SDS011;21562;49.476;6.086;2022-08-19T03:35:12;10.38;;;7.82;;
35444;SDS011;21562;49.476;6.086;2022-08-19T03:37:38;7.53;;;6.63;;
35444;SDS011;21562;49.476;6.086;2022-08-19T03:40:03;7.45;;;6.75;;
35444;SDS011;21562;49.476;6.086;2022-08-19T03:42:29;8.40;;;6.53;;
35444;SDS011;21562;49.476;6.086;2022-08-19T03:44:55;7.75;;;6.53;;
35444;SDS011;21562;49.476;6.086;2022-08-19T03:47:20;6.88;;;6.18;;
35444;SDS011;21562;49.476;6.086;2022-08-19T03:49:46;8.75;;;6.85;;
35444;SDS011;21562;49.476;6.086;2022-08-19T03:52:12;8.05;;;6.43;;
35444;SDS011;21562;49.476;6.086;2022-08-19T03:54:38;10.05;;;6.97;;
35444;SDS011;21562;49.476;6.086;2022-08-19T03:57:04;10.48;;;7.30;;
35444;SDS011;21562;49.476;6.086;2022-08-19T03:59:32;7.75;;;6.32;;
35444;SDS011;21562;49.476;6.086;2022-08-19T04:02:01;6.60;;;5.75;;
35444;SDS011;21562;49.476;6.086;2022-08-19T04:04:33;7.07;;;6.38;;
35444;SDS011;21562;49.476;6.086;2022-08-19T04:06:59;8.43;;;7.10;;
35444;SDS011;21562;49.476;6.086;2022-08-19T04:09:25;8.75;;;6.97;;
35444;SDS011;21562;49.476;6.086;2022-08-19T04:11:52;14.95;;;10.52;;
35444;SDS011;21562;49.476;6.086;2022-08-19T04:14:20;15.68;;;8.98;;
35444;SDS011;21562;49.476;6.086;2022-08-19T04:16:49;11.90;;;8.68;;
35444;SDS011;21562;49.476;6.086;2022-08-19T04:19:16;11.75;;;8.02;;
35444;SDS011;21562;49.476;6.086;2022-08-19T04:21:47;14.40;;;6.82;;
35444;SDS011;21562;49.476;6.086;2022-08-19T04:24:14;9.93;;;7.80;;
35444;SDS011;21562;49.476;6.086;2022-08-19T04:26:40;9.05;;;7.70;;
35444;SDS011;21562;49.476;6.086;2022-08-19T04:29:08;8.90;;;6.80;;
35444;SDS011;21562;49.476;6.086;2022-08-19T04:31:39;7.75;;;6.85;;
35444;SDS011;21562;49.476;6.086;2022-08-19T04:34:07;7.95;;;7.15;;
35444;SDS011;21562;49.476;6.086;2022-08-19T04:36:37;15.23;;;7.72;;
35444;SDS011;21562;49.476;6.086;2022-08-19T04:39:08;10.32;;;7.32;;
35444;SDS011;21562;49.476;6.086;2022-08-19T04:41:37;13.93;;;8.20;;
35444;SDS011;21562;49.476;6.086;2022-08-19T04:44:21;13.02;;;8.27;;
35444;SDS011;21562;49.476;6.086;2022-08-19T04:46:47;12.25;;;8.13;;
35444;SDS011;21562;49.476;6.086;2022-08-19T04:49:15;11.95;;;7.22;;
35444;SDS011;21562;49.476;6.086;2022-08-19T04:51:42;17.92;;;8.80;;
35444;SDS011;21562;49.476;6.086;2022-08-19T04:54:10;9.23;;;7.53;;
35444;SDS011;21562;49.476;6.086;2022-08-19T04:56:36;15.40;;;8.02;;
35444;SDS011;21562;49.476;6.086;2022-08-19T04:59:03;13.95;;;8.07;;
35444;SDS011;21562;49.476;6.086;2022-08-19T05:01:29;10.07;;;7.15;;
35444;SDS011;21562;49.476;6.086;2022-08-19T05:03:58;11.68;;;7.85;;
35444;SDS011;21562;49.476;6.086;2022-08-19T05:06:25;8.50;;;7.30;;
35444;SDS011;21562;49.476;6.086;2022-08-19T05:08:54;9.30;;;7.13;;
35444;SDS011;21562;49.476;6.086;2022-08-19T05:11:21;11.40;;;8.35;;
35444;SDS011;21562;49.476;6.086;2022-08-19T05:13:49;11.25;;;8.38;;
35444;SDS011;21562;49.476;6.086;2022-08-19T05:16:16;13.18;;;8.75;;
35444;SDS011;21562;49.476;6.086;2022-08-19T05:18:45;12.85;;;9.15;;
35444;SDS011;21562;49.476;6.086;2022-08-19T05:21:31;10.90;;;7.90;;
35444;SDS011;21562;49.476;6.086;2022-08-19T05:24:16;12.32;;;9.50;;
35444;SDS011;21562;49.476;6.086;2022-08-19T05:26:43;10.48;;;8.18;;
35444;SDS011;21562;49.476;6.086;2022-08-19T05:29:11;11.68;;;8.77;;
35444;SDS011;21562;49.476;6.086;2022-08-19T05:31:38;10.00;;;7.35;;
35444;SDS011;21562;49.476;6.086;2022-08-19T05:34:04;9.50;;;7.43;;
35444;SDS011;21562;49.476;6.086;2022-08-19T05:36:33;8.90;;;7.43;;
35444;SDS011;21562;49.476;6.086;2022-08-19T05:39:00;11.27;;;8.15;;
35444;SDS011;21562;49.476;6.086;2022-08-19T05:41:27;8.63;;;7.15;;
35444;SDS011;21562;49.476;6.086;2022-08-19T05:43:58;9.05;;;7.15;;
35444;SDS011;21562;49.476;6.086;2022-08-19T05:46:26;10.05;;;7.80;;
35444;SDS011;21562;49.476;6.086;2022-08-19T05:48:52;10.23;;;7.63;;
35444;SDS011;21562;49.476;6.086;2022-08-19T05:51:21;13.38;;;7.55;;
35444;SDS011;21562;49.476;6.086;2022-08-19T05:53:47;9.10;;;7.45;;
35444;SDS011;21562;49.476;6.086;2022-08-19T05:56:13;9.85;;;7.32;;
35444;SDS011;21562;49.476;6.086;2022-08-19T05:58:43;10.32;;;8.27;;
35444;SDS011;21562;49.476;6.086;2022-08-19T06:01:14;9.05;;;7.25;;
35444;SDS011;21562;49.476;6.086;2022-08-19T06:03:41;9.80;;;7.75;;
35444;SDS011;21562;49.476;6.086;2022-08-19T06:06:07;9.13;;;7.72;;
35444;SDS011;21562;49.476;6.086;2022-08-19T06:08:34;11.50;;;8.10;;
35444;SDS011;21562;49.476;6.086;2022-08-19T06:11:14;17.27;;;11.43;;
35444;SDS011;21562;49.476;6.086;2022-08-19T06:13:57;17.65;;;14.38;;
35444;SDS011;21562;49.476;6.086;2022-08-19T06:16:25;19.50;;;14.77;;
35444;SDS011;21562;49.476;6.086;2022-08-19T06:18:52;19.38;;;15.02;;
35444;SDS011;21562;49.476;6.086;2022-08-19T06:21:21;16.02;;;11.25;;
35444;SDS011;21562;49.476;6.086;2022-08-19T06:23:49;20.92;;;15.57;;
35444;SDS011;21562;49.476;6.086;2022-08-19T06:26:17;25.02;;;18.90;;
35444;SDS011;21562;49.476;6.086;2022-08-19T06:28:43;23.73;;;15.63;;
35444;SDS011;21562;49.476;6.086;2022-08-19T06:31:18;29.67;;;19.58;;
35444;SDS011;21562;49.476;6.086;2022-08-19T06:33:47;25.80;;;17.75;;
35444;SDS011;21562;49.476;6.086;2022-08-19T06:36:17;27.00;;;18.05;;
35444;SDS011;21562;49.476;6.086;2022-08-19T06:38:43;27.42;;;19.17;;
35444;SDS011;21562;49.476;6.086;2022-08-19T06:41:08;22.48;;;14.32;;
35444;SDS011;21562;49.476;6.086;2022-08-19T06:43:34;22.67;;;16.42;;
35444;SDS011;21562;49.476;6.086;2022-08-19T06:46:01;19.90;;;14.02;;
35444;SDS011;21562;49.476;6.086;2022-08-19T06:48:28;34.78;;;18.67;;
35444;SDS011;21562;49.476;6.086;2022-08-19T06:50:54;26.60;;;18.40;;
35444;SDS011;21562;49.476;6.086;2022-08-19T06:53:20;23.13;;;14.20;;
35444;SDS011;21562;49.476;6.086;2022-08-19T06:55:46;20.13;;;15.02;;
35444;SDS011;21562;49.476;6.086;2022-08-19T06:58:12;23.35;;;15.90;;
35444;SDS011;21562;49.476;6.086;2022-08-19T07:00:39;25.20;;;18.75;;
35444;SDS011;21562;49.476;6.086;2022-08-19T07:03:04;17.38;;;13.23;;
35444;SDS011;21562;49.476;6.086;2022-08-19T07:05:30;18.85;;;11.80;;
35444;SDS011;21562;49.476;6.086;2022-08-19T07:07:56;18.35;;;13.90;;
35444;SDS011;21562;49.476;6.086;2022-08-19T07:10:22;14.23;;;9.90;;
35444;SDS011;21562;49.476;6.086;2022-08-19T07:12:48;24.00;;;18.33;;
35444;SDS011;21562;49.476;6.086;2022-08-19T07:15:15;25.67;;;15.75;;
35444;SDS011;21562;49.476;6.086;2022-08-19T07:17:41;18.02;;;14.20;;
35444;SDS011;21562;49.476;6.086;2022-08-19T07:20:08;28.73;;;20.75;;
35444;SDS011;21562;49.476;6.086;2022-08-19T07:22:34;21.35;;;15.85;;
35444;SDS011;21562;49.476;6.086;2022-08-19T07:25:01;15.88;;;11.63;;
35444;SDS011;21562;49.476;6.086;2022-08-19T07:27:28;22.00;;;16.00;;
35444;SDS011;21562;49.476;6.086;2022-08-19T07:29:54;21.35;;;17.20;;
35444;SDS011;21562;49.476;6.086;2022-08-19T07:32:20;27.17;;;17.67;;
35444;SDS011;21562;49.476;6.086;2022-08-19T07:34:46;16.65;;;12.38;;
35444;SDS011;21562;49.476;6.086;2022-08-19T07:37:11;23.73;;;18.55;;
35444;SDS011;21562;49.476;6.086;2022-08-19T07:39:37;26.70;;;17.77;;
35444;SDS011;21562;49.476;6.086;2022-08-19T07:42:05;14.10;;;11.10;;
35444;SDS011;21562;49.476;6.086;2022-08-19T07:44:33;11.35;;;9.93;;
35444;SDS011;21562;49.476;6.086;2022-08-19T07:46:59;15.23;;;10.25;;
35444;SDS011;21562;49.476;6.086;2022-08-19T07:49:26;21.98;;;18.00;;
35444;SDS011;21562;49.476;6.086;2022-08-19T07:51:53;22.50;;;16.90;;
35444;SDS011;21562;49.476;6.086;2022-08-19T07:54:22;12.32;;;9.73;;
35444;SDS011;21562;49.476;6.086;2022-08-19T07:56:50;19.83;;;14.98;;
35444;SDS011;21562;49.476;6.086;2022-08-19T07:59:16;16.92;;;13.55;;
35444;SDS011;21562;49.476;6.086;2022-08-19T08:01:43;15.52;;;11.73;;
35444;SDS011;21562;49.476;6.086;2022-08-19T08:04:09;20.85;;;14.80;;
35444;SDS011;21562;49.476;6.086;2022-08-19T08:06:54;31.13;;;21.35;;
35444;SDS011;21562;49.476;6.086;2022-08-19T08:09:40;31.00;;;22.90;;
35444;SDS011;21562;49.476;6.086;2022-08-19T08:12:17;17.23;;;14.63;;
35444;SDS011;21562;49.476;6.086;2022-08-19T08:14:55;24.85;;;20.50;;
35444;SDS011;21562;49.476;6.086;2022-08-19T08:17:24;20.35;;;15.63;;
35444;SDS011;21562;49.476;6.086;2022-08-19T08:19:52;26.65;;;18.30;;
35444;SDS011;21562;49.476;6.086;2022-08-19T08:22:19;20.15;;;15.65;;
35444;SDS011;21562;49.476;6.086;2022-08-19T08:27:37;28.38;;;20.05;;
35444;SDS011;21562;49.476;6.086;2022-08-19T08:30:05;16.70;;;11.63;;
35444;SDS011;21562;49.476;6.086;2022-08-19T08:32:39;21.08;;;17.20;;
35444;SDS011;21562;49.476;6.086;2022-08-19T08:35:05;25.98;;;18.02;;
35444;SDS011;21562;49.476;6.086;2022-08-19T08:37:32;34.92;;;21.50;;
35444;SDS011;21562;49.476;6.086;2022-08-19T08:39:59;17.50;;;14.13;;
35444;SDS011;21562;49.476;6.086;2022-08-19T08:42:29;24.92;;;14.63;;
35444;SDS011;21562;49.476;6.086;2022-08-19T08:47:25;30.27;;;23.40;;
35444;SDS011;21562;49.476;6.086;2022-08-19T08:50:58;21.00;;;15.30;;
35444;SDS011;21562;49.476;6.086;2022-08-19T08:53:01;25.92;;;17.38;;
35444;SDS011;21562;49.476;6.086;2022-08-19T08:55:29;20.60;;;16.73;;
35444;SDS011;21562;49.476;6.086;2022-08-19T08:58:03;20.40;;;16.30;;
35444;SDS011;21562;49.476;6.086;2022-08-19T09:00:36;24.00;;;16.67;;
35444;SDS011;21562;49.476;6.086;2022-08-19T09:03:21;19.90;;;15.80;;
35444;SDS011;21562;49.476;6.086;2022-08-19T09:17:06;19.77;;;14.88;;
35444;SDS011;21562;49.476;6.086;2022-08-19T09:19:34;23.25;;;17.67;;
35444;SDS011;21562;49.476;6.086;2022-08-19T09:22:11;26.05;;;19.77;;
35444;SDS011;21562;49.476;6.086;2022-08-19T09:24:37;30.25;;;20.52;;
35444;SDS011;21562;49.476;6.086;2022-08-19T09:27:03;20.98;;;15.60;;
35444;SDS011;21562;49.476;6.086;2022-08-19T09:29:29;24.02;;;18.15;;
35444;SDS011;21562;49.476;6.086;2022-08-19T09:31:55;21.88;;;16.10;;
35444;SDS011;21562;49.476;6.086;2022-08-19T09:34:21;16.98;;;14.20;;
35444;SDS011;21562;49.476;6.086;2022-08-19T09:36:46;16.50;;;12.98;;
35444;SDS011;21562;49.476;6.086;2022-08-19T09:39:18;14.30;;;12.40;;
35444;SDS011;21562;49.476;6.086;2022-08-19T09:41:43;14.35;;;11.98;;
35444;SDS011;21562;49.476;6.086;2022-08-19T09:44:09;15.35;;;12.43;;
35444;SDS011;21562;49.476;6.086;2022-08-19T09:46:37;16.42;;;12.35;;
35444;SDS011;21562;49.476;6.086;2022-08-19T09:49:03;22.20;;;12.10;;
35444;SDS011;21562;49.476;6.086;2022-08-19T09:51:31;16.83;;;11.65;;
35444;SDS011;21562;49.476;6.086;2022-08-19T09:53:59;18.45;;;12.18;;
35444;SDS011;21562;49.476;6.086;2022-08-19T09:56:26;15.93;;;12.32;;
35444;SDS011;21562;49.476;6.086;2022-08-19T09:58:52;16.55;;;12.18;;
35444;SDS011;21562;49.476;6.086;2022-08-19T10:01:23;17.48;;;12.40;;
35444;SDS011;21562;49.476;6.086;2022-08-19T10:03:54;15.10;;;12.20;;
35444;SDS011;21562;49.476;6.086;2022-08-19T10:06:22;19.45;;;12.63;;
35444;SDS011;21562;49.476;6.086;2022-08-19T10:08:51;15.23;;;11.98;;
35444;SDS011;21562;49.476;6.086;2022-08-19T10:11:17;17.05;;;12.38;;
35444;SDS011;21562;49.476;6.086;2022-08-19T10:13:45;17.02;;;11.82;;
35444;SDS011;21562;49.476;6.086;2022-08-19T10:16:12;17.40;;;11.85;;
35444;SDS011;21562;49.476;6.086;2022-08-19T10:18:41;25.23;;;14.73;;
35444;SDS011;21562;49.476;6.086;2022-08-19T10:23:43;19.08;;;13.45;;
35444;SDS011;21562;49.476;6.086;2022-08-19T10:26:15;24.42;;;15.07;;
35444;SDS011;21562;49.476;6.086;2022-08-19T10:28:44;23.00;;;16.08;;
35444;SDS011;21562;49.476;6.086;2022-08-19T10:31:11;22.88;;;16.83;;
35444;SDS011;21562;49.476;6.086;2022-08-19T10:33:39;21.80;;;16.83;;
35444;SDS011;21562;49.476;6.086;2022-08-19T10:36:11;25.70;;;16.30;;
35444;SDS011;21562;49.476;6.086;2022-08-19T10:38:42;23.30;;;16.45;;
35444;SDS011;21562;49.476;6.086;2022-08-19T10:41:14;21.52;;;14.93;;
35444;SDS011;21562;49.476;6.086;2022-08-19T10:43:41;22.13;;;15.40;;
35444;SDS011;21562;49.476;6.086;2022-08-19T10:46:10;26.38;;;15.52;;
35444;SDS011;21562;49.476;6.086;2022-08-19T10:48:37;18.42;;;13.55;;
35444;SDS011;21562;49.476;6.086;2022-08-19T10:51:03;20.95;;;12.35;;
35444;SDS011;21562;49.476;6.086;2022-08-19T10:53:49;18.73;;;13.48;;
35444;SDS011;21562;49.476;6.086;2022-08-19T10:56:15;18.92;;;13.57;;
35444;SDS011;21562;49.476;6.086;2022-08-19T10:58:59;20.45;;;12.25;;
35444;SDS011;21562;49.476;6.086;2022-08-19T11:01:27;21.85;;;13.80;;
35444;SDS011;21562;49.476;6.086;2022-08-19T11:03:54;18.35;;;12.77;;
35444;SDS011;21562;49.476;6.086;2022-08-19T11:06:22;20.27;;;13.57;;
35444;SDS011;21562;49.476;6.086;2022-08-19T11:08:50;18.08;;;11.77;;
35444;SDS011;21562;49.476;6.086;2022-08-19T11:11:16;19.55;;;14.77;;
35444;SDS011;21562;49.476;6.086;2022-08-19T11:13:42;20.33;;;13.93;;
35444;SDS011;21562;49.476;6.086;2022-08-19T11:16:17;22.50;;;13.98;;
35444;SDS011;21562;49.476;6.086;2022-08-19T11:18:49;16.48;;;13.25;;
35444;SDS011;21562;49.476;6.086;2022-08-19T11:23:45;18.08;;;11.55;;
35444;SDS011;21562;49.476;6.086;2022-08-19T11:26:12;12.68;;;9.05;;
35444;SDS011;21562;49.476;6.086;2022-08-19T11:28:39;12.35;;;7.47;;
35444;SDS011;21562;49.476;6.086;2022-08-19T11:31:12;11.55;;;6.32;;
35444;SDS011;21562;49.476;6.086;2022-08-19T11:33:46;9.93;;;6.45;;
35444;SDS011;21562;49.476;6.086;2022-08-19T11:36:15;10.88;;;5.85;;
35444;SDS011;21562;49.476;6.086;2022-08-19T11:38:43;10.13;;;7.10;;
35444;SDS011;21562;49.476;6.086;2022-08-19T11:41:10;8.55;;;6.38;;
35444;SDS011;21562;49.476;6.086;2022-08-19T11:43:36;9.77;;;7.10;;
35444;SDS011;21562;49.476;6.086;2022-08-19T11:46:06;10.13;;;8.52;;
35444;SDS011;21562;49.476;6.086;2022-08-19T11:48:33;11.13;;;8.02;;
35444;SDS011;21562;49.476;6.086;2022-08-19T11:51:02;8.90;;;5.40;;
35444;SDS011;21562;49.476;6.086;2022-08-19T11:53:31;6.43;;;4.57;;
35444;SDS011;21562;49.476;6.086;2022-08-19T11:55:57;8.45;;;3.65;;
35444;SDS011;21562;49.476;6.086;2022-08-19T11:58:23;5.20;;;3.85;;
35444;SDS011;21562;49.476;6.086;2022-08-19T12:00:49;9.00;;;6.03;;
35444;SDS011;21562;49.476;6.086;2022-08-19T12:03:16;10.02;;;7.10;;
35444;SDS011;21562;49.476;6.086;2022-08-19T12:05:42;8.38;;;6.78;;
35444;SDS011;21562;49.476;6.086;2022-08-19T12:08:08;8.80;;;6.22;;
35444;SDS011;21562;49.476;6.086;2022-08-19T12:10:34;8.40;;;5.38;;
35444;SDS011;21562;49.476;6.086;2022-08-19T12:13:00;9.60;;;6.15;;
35444;SDS011;21562;49.476;6.086;2022-08-19T12:15:26;8.95;;;6.50;;
35444;SDS011;21562;49.476;6.086;2022-08-19T12:17:53;9.27;;;6.70;;
35444;SDS011;21562;49.476;6.086;2022-08-19T12:20:21;8.95;;;6.63;;
35444;SDS011;21562;49.476;6.086;2022-08-19T12:22:48;8.77;;;6.85;;
35444;SDS011;21562;49.476;6.086;2022-08-19T12:25:15;8.38;;;5.80;;
35444;SDS011;21562;49.476;6.086;2022-08-19T12:27:40;8.38;;;6.45;;
35444;SDS011;21562;49.476;6.086;2022-08-19T12:30:07;11.77;;;7.60;;
35444;SDS011;21562;49.476;6.086;2022-08-19T12:32:35;10.00;;;5.95;;
35444;SDS011;21562;49.476;6.086;2022-08-19T12:35:00;9.40;;;6.45;;
35444;SDS011;21562;49.476;6.086;2022-08-19T12:37:26;8.85;;;6.70;;
35444;SDS011;21562;49.476;6.086;2022-08-19T12:39:52;10.88;;;5.88;;
35444;SDS011;21562;49.476;6.086;2022-08-19T12:42:18;10.85;;;7.00;;
35444;SDS011;21562;49.476;6.086;2022-08-19T12:44:44;11.95;;;6.93;;
35444;SDS011;21562;49.476;6.086;2022-08-19T12:47:11;10.02;;;5.90;;
35444;SDS011;21562;49.476;6.086;2022-08-19T12:49:39;12.35;;;5.93;;
35444;SDS011;21562;49.476;6.086;2022-08-19T12:52:06;9.40;;;6.47;;
35444;SDS011;21562;49.476;6.086;2022-08-19T12:54:33;9.55;;;6.72;;
35444;SDS011;21562;49.476;6.086;2022-08-19T12:57:00;8.23;;;6.15;;
35444;SDS011;21562;49.476;6.086;2022-08-19T12:59:29;11.43;;;6.57;;
35444;SDS011;21562;49.476;6.086;2022-08-19T13:01:55;8.65;;;7.00;;
35444;SDS011;21562;49.476;6.086;2022-08-19T13:04:21;10.35;;;7.47;;
35444;SDS011;21562;49.476;6.086;2022-08-19T13:06:46;10.20;;;6.35;;
35444;SDS011;21562;49.476;6.086;2022-08-19T13:09:12;7.38;;;4.93;;
35444;SDS011;21562;49.476;6.086;2022-08-19T13:11:38;9.70;;;6.05;;
35444;SDS011;21562;49.476;6.086;2022-08-19T13:14:03;8.27;;;5.50;;
35444;SDS011;21562;49.476;6.086;2022-08-19T13:16:30;6.85;;;4.90;;
35444;SDS011;21562;49.476;6.086;2022-08-19T13:18:56;7.68;;;5.20;;
35444;SDS011;21562;49.476;6.086;2022-08-19T13:21:24;6.65;;;5.13;;
35444;SDS011;21562;49.476;6.086;2022-08-19T13:23:53;11.07;;;5.97;;
35444;SDS011;21562;49.476;6.086;2022-08-19T13:26:19;8.68;;;5.10;;
35444;SDS011;21562;49.476;6.086;2022-08-19T13:28:45;6.65;;;4.22;;
35444;SDS011;21562;49.476;6.086;2022-08-19T13:31:31;6.05;;;4.97;;
35444;SDS011;21562;49.476;6.086;2022-08-19T13:34:18;7.45;;;4.95;;
35444;SDS011;21562;49.476;6.086;2022-08-19T13:36:51;7.25;;;4.43;;
35444;SDS011;21562;49.476;6.086;2022-08-19T13:39:18;9.65;;;5.20;;
35444;SDS011;21562;49.476;6.086;2022-08-19T13:41:44;5.85;;;4.30;;
35444;SDS011;21562;49.476;6.086;2022-08-19T13:44:15;7.65;;;4.88;;
35444;SDS011;21562;49.476;6.086;2022-08-19T13:46:43;5.97;;;4.57;;
35444;SDS011;21562;49.476;6.086;2022-08-19T13:49:10;11.60;;;4.47;;
35444;SDS011;21562;49.476;6.086;2022-08-19T13:51:38;6.68;;;4.53;;
35444;SDS011;21562;49.476;6.086;2022-08-19T13:54:07;6.28;;;3.80;;
35444;SDS011;21562;49.476;6.086;2022-08-19T13:56:33;4.13;;;3.67;;
35444;SDS011;21562;49.476;6.086;2022-08-19T13:59:00;4.05;;;3.65;;
35444;SDS011;21562;49.476;6.086;2022-08-19T14:01:26;9.73;;;4.75;;
35444;SDS011;21562;49.476;6.086;2022-08-19T14:03:52;5.25;;;3.22;;
35444;SDS011;21562;49.476;6.086;2022-08-19T14:06:19;6.68;;;3.05;;
35444;SDS011;21562;49.476;6.086;2022-08-19T14:08:45;7.28;;;3.53;;
35444;SDS011;21562;49.476;6.086;2022-08-19T14:11:11;3.80;;;2.72;;
35444;SDS011;21562;49.476;6.086;2022-08-19T14:13:36;6.88;;;2.70;;
35444;SDS011;21562;49.476;6.086;2022-08-19T14:16:06;5.30;;;3.58;;
35444;SDS011;21562;49.476;6.086;2022-08-19T14:18:37;4.57;;;3.03;;
35444;SDS011;21562;49.476;6.086;2022-08-19T14:21:03;2.88;;;2.30;;
35444;SDS011;21562;49.476;6.086;2022-08-19T14:23:29;2.38;;;2.03;;
35444;SDS011;21562;49.476;6.086;2022-08-19T14:26:03;4.65;;;1.73;;
35444;SDS011;21562;49.476;6.086;2022-08-19T14:28:37;4.03;;;2.17;;
35444;SDS011;21562;49.476;6.086;2022-08-19T14:31:04;3.25;;;1.30;;
35444;SDS011;21562;49.476;6.086;2022-08-19T14:33:30;2.30;;;1.48;;
35444;SDS011;21562;49.476;6.086;2022-08-19T14:35:57;5.40;;;1.50;;
35444;SDS011;21562;49.476;6.086;2022-08-19T14:38:23;5.45;;;1.60;;
35444;SDS011;21562;49.476;6.086;2022-08-19T14:40:48;3.30;;;1.27;;
35444;SDS011;21562;49.476;6.086;2022-08-19T14:43:14;2.85;;;1.15;;
35444;SDS011;21562;49.476;6.086;2022-08-19T14:45:40;2.30;;;1.52;;
35444;SDS011;21562;49.476;6.086;2022-08-19T14:48:06;2.78;;;1.48;;
35444;SDS011;21562;49.476;6.086;2022-08-19T14:50:33;2.72;;;1.50;;
35444;SDS011;21562;49.476;6.086;2022-08-19T14:53:02;1.88;;;1.20;;
35444;SDS011;21562;49.476;6.086;2022-08-19T14:55:30;3.00;;;1.00;;
35444;SDS011;21562;49.476;6.086;2022-08-19T14:57:56;0.85;;;0.80;;
35444;SDS011;21562;49.476;6.086;2022-08-19T15:00:22;1.73;;;0.85;;
35444;SDS011;21562;49.476;6.086;2022-08-19T15:02:49;1.05;;;0.50;;
35444;SDS011;21562;49.476;6.086;2022-08-19T15:05:15;1.75;;;0.80;;